Time;durP1;ratioP1;P1;durP2;ratioP2;P2;SDS_P1;SDS_P2;PMS_P1;PMS_P2;Temp;Humidity;BMP_temperature;BMP_pressure;BME280_temperature;BME280_humidity;BME280_pressure;Samples;Min_cycle;Max_cycle;Signal;HPM_P1;HPM_P2
2022/03/21 00:01:59;;;;;;;27.67;15.70;;;;;;;;;;5075334;28;20025;-63
2022/03/21 00:04:25;;;;;;;27.38;15.35;;;;;;;;;;5075645;28;20396;-63
2022/03/21 00:06:51;;;;;;;27.38;15.63;;;;;;;;;;5075786;28;20025;-62
2022/03/21 00:09:17;;;;;;;27.17;14.75;;;;;;;;;;5075601;28;20043;-63
2022/03/21 00:11:43;;;;;;;27.73;15.25;;;;;;;;;;5074108;28;20024;-63
2022/03/21 00:14:12;;;;;;;27.05;15.50;;;;;;;;;;5075461;28;20058;-63
2022/03/21 00:16:39;;;;;;;30.13;15.25;;;;;;;;;;5075644;28;20063;-64
2022/03/21 00:19:05;;;;;;;27.23;15.40;;;;;;;;;;5075339;28;20031;-62
2022/03/21 00:21:32;;;;;;;28.70;15.13;;;;;;;;;;5075540;28;20052;-62
2022/03/21 00:23:58;;;;;;;27.02;15.10;;;;;;;;;;5075627;28;20048;-62
2022/03/21 00:26:24;;;;;;;27.08;15.30;;;;;;;;;;5075149;28;20064;-62
2022/03/21 00:28:50;;;;;;;28.30;15.63;;;;;;;;;;5072713;28;20070;-63
2022/03/21 00:31:16;;;;;;;26.42;14.68;;;;;;;;;;5075249;28;20499;-62
2022/03/21 00:33:43;;;;;;;27.38;14.23;;;;;;;;;;5074853;28;20036;-62
2022/03/21 00:36:09;;;;;;;26.60;14.75;;;;;;;;;;5075297;28;20031;-62
2022/03/21 00:38:37;;;;;;;26.55;15.00;;;;;;;;;;5074412;28;20024;-62
2022/03/21 00:41:04;;;;;;;27.95;14.73;;;;;;;;;;5074468;28;20111;-62
2022/03/21 00:43:30;;;;;;;26.98;15.15;;;;;;;;;;5075019;28;20024;-61
2022/03/21 00:45:57;;;;;;;27.52;14.90;;;;;;;;;;5072255;28;20027;-61
2022/03/21 00:48:24;;;;;;;28.15;15.95;;;;;;;;;;5074307;28;20024;-62
2022/03/21 00:50:50;;;;;;;25.75;14.68;;;;;;;;;;5074745;28;20416;-61
2022/03/21 00:53:16;;;;;;;26.13;14.57;;;;;;;;;;5074555;28;20115;-62
2022/03/21 00:55:43;;;;;;;27.60;15.23;;;;;;;;;;5074432;28;20044;-62
2022/03/21 00:58:09;;;;;;;27.50;14.20;;;;;;;;;;5074435;28;20082;-62
2022/03/21 01:00:35;;;;;;;26.52;14.60;;;;;;;;;;5074612;28;20027;-62
2022/03/21 01:03:01;;;;;;;28.05;15.38;;;;;;;;;;5074967;28;20028;-62
2022/03/21 01:05:28;;;;;;;26.70;14.68;;;;;;;;;;5074483;28;20070;-62
2022/03/21 01:07:54;;;;;;;27.50;15.20;;;;;;;;;;5074475;28;20035;-62
2022/03/21 01:10:21;;;;;;;26.05;14.55;;;;;;;;;;5074613;28;20036;-63
2022/03/21 01:12:48;;;;;;;26.05;14.80;;;;;;;;;;5073986;28;20103;-62
2022/03/21 01:15:15;;;;;;;27.55;15.13;;;;;;;;;;5074074;28;20054;-63
2022/03/21 01:17:44;;;;;;;27.23;14.50;;;;;;;;;;5072826;28;20017;-64
2022/03/21 01:20:11;;;;;;;25.95;14.38;;;;;;;;;;5070039;28;20095;-62
2022/03/21 01:22:37;;;;;;;26.10;15.00;;;;;;;;;;5074248;28;20028;-62
2022/03/21 01:25:03;;;;;;;26.17;14.95;;;;;;;;;;5073809;28;20032;-62
2022/03/21 01:27:29;;;;;;;26.48;14.60;;;;;;;;;;5074073;28;20032;-62
2022/03/21 01:29:56;;;;;;;27.67;14.85;;;;;;;;;;5073705;28;20036;-62
2022/03/21 01:32:22;;;;;;;26.73;14.95;;;;;;;;;;5074246;28;20052;-62
2022/03/21 01:34:48;;;;;;;26.15;14.20;;;;;;;;;;5074130;28;20526;-63
2022/03/21 01:37:14;;;;;;;26.20;14.73;;;;;;;;;;5073891;28;20016;-63
2022/03/21 01:39:40;;;;;;;25.77;13.93;;;;;;;;;;5077414;28;20030;-62
2022/03/21 01:42:07;;;;;;;26.15;14.48;;;;;;;;;;5089385;28;20031;-62
2022/03/21 01:44:33;;;;;;;25.60;14.40;;;;;;;;;;5074833;28;20030;-62
2022/03/21 01:47:00;;;;;;;25.73;13.82;;;;;;;;;;5072658;28;20033;-61
2022/03/21 01:49:26;;;;;;;25.60;13.65;;;;;;;;;;5086586;28;20485;-63
2022/03/21 01:51:53;;;;;;;25.35;14.18;;;;;;;;;;5094334;28;20028;-63
2022/03/21 01:57:12;;;;;;;25.98;14.18;;;;;;;;;;5092336;28;20381;-62
2022/03/21 01:59:38;;;;;;;25.75;13.65;;;;;;;;;;5094286;28;20039;-63
2022/03/21 02:02:06;;;;;;;25.35;13.63;;;;;;;;;;5093764;28;20054;-63
2022/03/21 02:04:32;;;;;;;25.42;13.50;;;;;;;;;;5094072;28;20024;-63
2022/03/21 02:06:59;;;;;;;24.98;13.40;;;;;;;;;;5093687;28;20016;-62
2022/03/21 02:09:25;;;;;;;26.42;13.20;;;;;;;;;;5093835;28;20028;-63
2022/03/21 02:11:51;;;;;;;25.13;13.05;;;;;;;;;;5093631;28;20389;-62
2022/03/21 02:14:17;;;;;;;24.92;13.63;;;;;;;;;;5093706;28;20472;-63
2022/03/21 02:16:43;;;;;;;24.83;13.63;;;;;;;;;;5093445;28;20027;-62
2022/03/21 02:19:12;;;;;;;25.05;13.57;;;;;;;;;;5093937;28;20024;-62
2022/03/21 02:21:48;;;;;;;25.00;13.40;;;;;;;;;;5093459;28;20373;-62
2022/03/21 02:24:26;;;;;;;24.70;13.18;;;;;;;;;;5093598;28;20106;-63
2022/03/21 02:26:52;;;;;;;24.20;12.57;;;;;;;;;;5092862;28;20024;-62
2022/03/21 02:29:19;;;;;;;25.35;13.43;;;;;;;;;;5093546;28;20105;-62
2022/03/21 02:31:46;;;;;;;24.30;13.00;;;;;;;;;;5093403;28;20469;-63
2022/03/21 02:34:12;;;;;;;24.98;11.93;;;;;;;;;;5093360;28;20037;-63
2022/03/21 02:36:38;;;;;;;25.35;13.02;;;;;;;;;;5093278;28;20081;-64
2022/03/21 02:39:05;;;;;;;23.58;11.77;;;;;;;;;;5090599;28;20024;-64
2022/03/21 02:41:31;;;;;;;23.83;12.15;;;;;;;;;;5086653;28;20086;-63
2022/03/21 02:43:58;;;;;;;24.38;12.23;;;;;;;;;;5092641;28;20028;-63
2022/03/21 02:46:24;;;;;;;23.38;11.82;;;;;;;;;;5071854;28;20078;-62
2022/03/21 02:48:52;;;;;;;23.35;11.88;;;;;;;;;;5089291;28;20027;-63
2022/03/21 02:51:20;;;;;;;23.70;11.23;;;;;;;;;;5090359;28;20028;-62
2022/03/21 02:53:46;;;;;;;24.30;10.90;;;;;;;;;;5090783;28;20019;-62
2022/03/21 02:56:12;;;;;;;23.60;11.32;;;;;;;;;;5081248;28;20032;-63
2022/03/21 02:58:38;;;;;;;23.13;10.60;;;;;;;;;;5071287;28;20044;-63
2022/03/21 03:01:08;;;;;;;22.90;10.70;;;;;;;;;;5071740;28;20052;-63
2022/03/21 03:03:34;;;;;;;23.27;10.60;;;;;;;;;;5072328;28;20400;-63
2022/03/21 03:06:00;;;;;;;23.90;10.52;;;;;;;;;;5072796;28;20085;-62
2022/03/21 03:08:26;;;;;;;23.50;10.43;;;;;;;;;;5070532;28;20387;-62
2022/03/21 03:10:52;;;;;;;23.05;10.60;;;;;;;;;;5070769;28;20043;-63
2022/03/21 03:13:18;;;;;;;23.05;9.95;;;;;;;;;;5068915;28;20017;-62
2022/03/21 03:15:44;;;;;;;21.58;9.82;;;;;;;;;;5070512;28;20497;-63
2022/03/21 03:18:10;;;;;;;21.10;9.90;;;;;;;;;;5070811;28;20054;-62
2022/03/21 03:20:36;;;;;;;22.08;9.23;;;;;;;;;;5071780;28;20596;-62
2022/03/21 03:23:03;;;;;;;22.23;9.70;;;;;;;;;;5071634;28;20052;-63
2022/03/21 03:25:29;;;;;;;21.45;9.50;;;;;;;;;;5072540;28;20021;-63
2022/03/21 03:27:55;;;;;;;20.95;8.77;;;;;;;;;;5072360;28;20485;-63
2022/03/21 03:30:21;;;;;;;21.92;9.15;;;;;;;;;;5072569;28;20121;-63
2022/03/21 03:32:50;;;;;;;21.70;9.00;;;;;;;;;;5072455;28;20025;-63
2022/03/21 03:35:16;;;;;;;22.08;9.10;;;;;;;;;;5072697;28;20021;-62
2022/03/21 03:37:42;;;;;;;19.48;8.48;;;;;;;;;;5072576;28;20021;-62
2022/03/21 03:40:09;;;;;;;20.52;8.88;;;;;;;;;;5072445;28;20029;-63
2022/03/21 03:42:35;;;;;;;20.00;8.70;;;;;;;;;;5086660;28;20377;-62
2022/03/21 03:45:01;;;;;;;20.40;8.40;;;;;;;;;;5092415;28;20032;-62
2022/03/21 03:47:27;;;;;;;20.95;8.38;;;;;;;;;;5092426;28;20024;-62
2022/03/21 03:49:53;;;;;;;22.15;8.77;;;;;;;;;;5092728;28;20469;-62
2022/03/21 03:52:19;;;;;;;19.63;8.43;;;;;;;;;;5092471;28;20016;-62
2022/03/21 03:54:45;;;;;;;19.33;7.60;;;;;;;;;;5092108;28;20421;-63
2022/03/21 03:57:11;;;;;;;19.58;8.15;;;;;;;;;;5092944;28;20081;-63
2022/03/21 03:59:38;;;;;;;19.92;8.07;;;;;;;;;;5092422;28;20069;-62
2022/03/21 04:02:04;;;;;;;21.48;8.10;;;;;;;;;;5092548;28;20039;-63
2022/03/21 04:04:30;;;;;;;19.02;7.65;;;;;;;;;;5093791;28;20020;-62
2022/03/21 04:06:56;;;;;;;20.63;7.78;;;;;;;;;;5090239;28;20432;-62
2022/03/21 04:09:22;;;;;;;19.33;7.38;;;;;;;;;;5075339;28;20044;-62
2022/03/21 04:11:48;;;;;;;19.20;7.35;;;;;;;;;;5075679;28;20024;-63
2022/03/21 04:14:14;;;;;;;19.33;7.45;;;;;;;;;;5075725;28;20032;-62
2022/03/21 04:16:44;;;;;;;21.52;7.40;;;;;;;;;;5075641;28;20017;-63
2022/03/21 04:19:10;;;;;;;21.42;7.88;;;;;;;;;;5075687;28;20028;-62
2022/03/21 04:21:36;;;;;;;20.58;7.88;;;;;;;;;;5075390;28;20027;-63
2022/03/21 04:24:02;;;;;;;19.83;7.72;;;;;;;;;;5075232;28;20386;-62
2022/03/21 04:26:28;;;;;;;20.63;7.53;;;;;;;;;;5075309;28;20044;-62
2022/03/21 04:28:55;;;;;;;18.77;6.97;;;;;;;;;;5075307;28;20041;-62
2022/03/21 04:31:21;;;;;;;20.15;7.32;;;;;;;;;;5075737;28;20389;-62
2022/03/21 04:33:47;;;;;;;19.73;7.30;;;;;;;;;;5075479;28;20086;-62
2022/03/21 04:36:14;;;;;;;19.65;7.15;;;;;;;;;;5075094;28;20040;-62
2022/03/21 04:38:40;;;;;;;18.08;6.70;;;;;;;;;;5075244;28;20020;-62
2022/03/21 04:41:06;;;;;;;18.63;6.85;;;;;;;;;;5074738;28;20017;-62
2022/03/21 04:43:32;;;;;;;19.63;7.07;;;;;;;;;;5074824;28;20028;-63
2022/03/21 04:45:59;;;;;;;18.63;6.93;;;;;;;;;;5075155;28;20021;-63
2022/03/21 04:48:25;;;;;;;21.15;7.38;;;;;;;;;;5073855;28;20074;-62
2022/03/21 04:50:51;;;;;;;18.90;6.78;;;;;;;;;;5074974;28;20400;-63
2022/03/21 04:53:17;;;;;;;19.85;7.10;;;;;;;;;;5073325;28;20047;-63
2022/03/21 04:55:44;;;;;;;19.85;6.97;;;;;;;;;;5074588;28;20024;-63
2022/03/21 04:58:11;;;;;;;19.05;6.78;;;;;;;;;;5074890;28;20074;-62
2022/03/21 05:00:38;;;;;;;18.23;6.55;;;;;;;;;;5074683;28;20021;-63
2022/03/21 05:03:07;;;;;;;18.38;6.55;;;;;;;;;;5074657;28;20031;-63
2022/03/21 05:05:35;;;;;;;18.77;6.80;;;;;;;;;;5074610;28;20028;-64
2022/03/21 05:08:02;;;;;;;18.88;6.50;;;;;;;;;;5072951;28;20366;-62
2022/03/21 05:10:28;;;;;;;20.83;7.05;;;;;;;;;;5054266;28;20533;-63
2022/03/21 05:12:54;;;;;;;18.45;6.25;;;;;;;;;;5054532;28;20021;-63
2022/03/21 05:15:21;;;;;;;18.85;6.43;;;;;;;;;;5054000;28;20033;-63
2022/03/21 05:17:47;;;;;;;18.40;5.95;;;;;;;;;;5054562;28;20033;-63
2022/03/21 05:20:17;;;;;;;18.52;6.70;;;;;;;;;;5054231;28;20421;-63
2022/03/21 05:22:44;;;;;;;20.17;6.80;;;;;;;;;;5054444;28;20021;-63
2022/03/21 05:30:57;;;;;;;18.23;6.47;;;;;;;;;;5068441;28;20055;-63
2022/03/21 05:36:08;;;;;;;18.35;6.47;;;;;;;;;;5073660;28;20040;-63
2022/03/21 05:38:35;;;;;;;19.63;6.45;;;;;;;;;;5074104;28;20541;-63
2022/03/21 05:41:01;;;;;;;16.52;6.10;;;;;;;;;;5073677;28;20059;-64
2022/03/21 05:43:28;;;;;;;17.45;5.80;;;;;;;;;;5072738;28;20020;-63
2022/03/21 05:45:55;;;;;;;17.42;6.28;;;;;;;;;;5073977;28;20020;-62
2022/03/21 05:51:05;;;;;;;17.67;6.03;;;;;;;;;;5073353;28;20611;-62
2022/03/21 05:53:32;;;;;;;18.75;6.35;;;;;;;;;;5072914;28;20028;-62
2022/03/21 05:56:00;;;;;;;18.30;6.80;;;;;;;;;;5073593;28;20029;-62
2022/03/21 05:58:26;;;;;;;16.88;6.32;;;;;;;;;;5074057;28;20397;-62
2022/03/21 06:00:52;;;;;;;18.08;6.30;;;;;;;;;;5072371;28;20159;-61
2022/03/21 06:03:18;;;;;;;18.10;6.15;;;;;;;;;;5073597;28;20025;-62
2022/03/21 06:05:46;;;;;;;17.48;6.07;;;;;;;;;;5073181;28;20032;-62
2022/03/21 06:08:13;;;;;;;18.05;6.70;;;;;;;;;;5072216;28;20475;-62
2022/03/21 06:10:39;;;;;;;18.63;6.38;;;;;;;;;;5073264;28;20041;-62
2022/03/21 06:13:05;;;;;;;19.08;6.47;;;;;;;;;;5073722;28;20028;-62
2022/03/21 06:15:40;;;;;;;18.98;6.57;;;;;;;;;;5073661;28;20078;-62
2022/03/21 06:18:10;;;;;;;18.63;6.65;;;;;;;;;;5073339;28;20048;-62
2022/03/21 06:20:36;;;;;;;18.70;6.88;;;;;;;;;;5073174;28;20486;-62
2022/03/21 06:23:02;;;;;;;19.08;7.00;;;;;;;;;;5073191;28;20051;-63
2022/03/21 06:25:29;;;;;;;18.70;7.28;;;;;;;;;;5073056;28;20035;-63
2022/03/21 06:27:55;;;;;;;19.77;7.47;;;;;;;;;;5072098;28;20124;-63
2022/03/21 06:30:21;;;;;;;19.02;7.32;;;;;;;;;;5072965;28;20040;-63
2022/03/21 06:32:47;;;;;;;18.98;7.20;;;;;;;;;;5072602;28;20025;-62
2022/03/21 06:35:13;;;;;;;19.63;7.32;;;;;;;;;;5073125;28;20036;-63
2022/03/21 06:37:40;;;;;;;20.92;7.32;;;;;;;;;;5073115;28;20077;-63
2022/03/21 06:40:07;;;;;;;19.77;7.28;;;;;;;;;;5073247;28;20096;-62
2022/03/21 06:42:33;;;;;;;21.27;7.25;;;;;;;;;;5073121;28;20020;-63
2022/03/21 06:44:59;;;;;;;18.00;6.68;;;;;;;;;;5073033;28;20462;-62
2022/03/21 06:47:25;;;;;;;18.33;6.60;;;;;;;;;;5072967;28;20020;-63
2022/03/21 06:49:51;;;;;;;19.88;6.97;;;;;;;;;;5071857;28;20094;-64
2022/03/21 06:52:18;;;;;;;20.25;6.93;;;;;;;;;;5072665;28;20492;-63
2022/03/21 06:54:45;;;;;;;18.95;6.63;;;;;;;;;;5072801;28;20031;-63
2022/03/21 06:57:12;;;;;;;19.65;6.60;;;;;;;;;;5073054;28;20385;-63
2022/03/21 06:59:38;;;;;;;20.60;6.68;;;;;;;;;;5071979;28;20032;-63
2022/03/21 07:02:07;;;;;;;18.92;6.55;;;;;;;;;;5072567;28;20098;-63
2022/03/21 07:04:33;;;;;;;21.60;7.07;;;;;;;;;;5068805;28;20040;-62
2022/03/21 07:06:59;;;;;;;20.55;6.85;;;;;;;;;;5072839;28;20583;-63
2022/03/21 07:09:25;;;;;;;19.58;7.07;;;;;;;;;;5072966;28;20043;-63
2022/03/21 07:11:52;;;;;;;20.65;6.72;;;;;;;;;;5072797;28;20074;-63
2022/03/21 07:14:18;;;;;;;21.20;6.53;;;;;;;;;;5072477;28;20036;-64
2022/03/21 07:16:44;;;;;;;20.65;7.15;;;;;;;;;;5075015;28;20032;-64
2022/03/21 07:19:10;;;;;;;21.05;6.88;;;;;;;;;;5072122;28;20031;-64
2022/03/21 07:21:36;;;;;;;24.20;7.53;;;;;;;;;;5071776;28;20419;-64
2022/03/21 07:24:03;;;;;;;19.75;6.80;;;;;;;;;;5069440;28;20041;-63
2022/03/21 07:26:29;;;;;;;20.13;6.57;;;;;;;;;;5070575;28;20032;-63
2022/03/21 07:28:55;;;;;;;21.73;7.15;;;;;;;;;;5071985;28;20104;-63
2022/03/21 07:31:21;;;;;;;22.83;6.97;;;;;;;;;;5072376;28;20109;-63
2022/03/21 07:33:47;;;;;;;23.48;7.07;;;;;;;;;;5072246;28;20433;-63
2022/03/21 07:36:13;;;;;;;22.08;6.63;;;;;;;;;;5072569;28;20033;-64
2022/03/21 07:38:39;;;;;;;18.80;6.55;;;;;;;;;;5073537;28;20020;-64
2022/03/21 07:41:07;;;;;;;19.42;7.13;;;;;;;;;;5074250;28;20050;-64
2022/03/21 07:43:33;;;;;;;21.30;6.93;;;;;;;;;;5072659;28;20392;-63
2022/03/21 07:48:44;;;;;;;22.88;6.78;;;;;;;;;;5074351;28;20039;-63
2022/03/21 07:51:11;;;;;;;20.27;6.93;;;;;;;;;;5076112;28;20123;-63
2022/03/21 07:53:37;;;;;;;22.98;6.95;;;;;;;;;;5075677;28;20481;-63
2022/03/21 07:56:03;;;;;;;23.15;6.72;;;;;;;;;;5070089;28;20501;-63
2022/03/21 07:58:31;;;;;;;21.90;6.75;;;;;;;;;;5070942;28;20429;-63
2022/03/21 08:00:58;;;;;;;23.83;6.68;;;;;;;;;;5075117;28;20039;-63
2022/03/21 08:03:24;;;;;;;18.90;6.88;;;;;;;;;;5075094;28;20108;-63
2022/03/21 08:05:52;;;;;;;20.08;6.70;;;;;;;;;;5093476;28;20062;-63
2022/03/21 08:08:19;;;;;;;19.85;6.57;;;;;;;;;;5095856;28;20503;-62
2022/03/21 08:10:46;;;;;;;20.67;6.97;;;;;;;;;;5095729;28;20420;-61
2022/03/21 08:13:16;;;;;;;23.55;7.03;;;;;;;;;;5096026;28;20024;-63
2022/03/21 08:15:43;;;;;;;20.65;6.95;;;;;;;;;;5095610;28;20380;-62
2022/03/21 08:18:10;;;;;;;22.90;6.95;;;;;;;;;;5077153;28;20382;-61
2022/03/21 08:20:38;;;;;;;21.27;7.53;;;;;;;;;;5075531;28;20030;-60
2022/03/21 08:23:08;;;;;;;23.05;7.25;;;;;;;;;;5075579;28;20059;-61
2022/03/21 08:25:35;;;;;;;27.83;9.13;;;;;;;;;;5075114;28;20047;-61
2022/03/21 08:28:02;;;;;;;31.77;10.05;;;;;;;;;;5074943;28;20480;-62
2022/03/21 08:30:32;;;;;;;25.73;9.68;;;;;;;;;;5078279;28;20496;-61
2022/03/21 08:32:58;;;;;;;23.75;8.18;;;;;;;;;;5079172;28;20021;-61
2022/03/21 08:35:25;;;;;;;24.02;7.70;;;;;;;;;;5085927;28;20027;-61
2022/03/21 08:37:50;;;;;;;22.73;7.47;;;;;;;;;;5078604;28;20025;-63
2022/03/21 08:40:17;;;;;;;22.73;7.88;;;;;;;;;;5091041;28;20136;-61
2022/03/21 08:42:43;;;;;;;31.67;8.63;;;;;;;;;;5080471;28;20476;-64
2022/03/21 08:45:10;;;;;;;22.48;7.60;;;;;;;;;;5082907;28;20026;-65
2022/03/21 08:47:37;;;;;;;21.30;7.50;;;;;;;;;;5077111;28;20020;-60
2022/03/21 08:50:03;;;;;;;23.70;7.50;;;;;;;;;;5076109;28;20098;-62
2022/03/21 08:52:29;;;;;;;24.67;7.82;;;;;;;;;;5080795;28;20375;-61
2022/03/21 08:54:56;;;;;;;27.33;7.25;;;;;;;;;;5083652;28;20474;-62
2022/03/21 08:57:22;;;;;;;22.92;7.22;;;;;;;;;;5083545;28;20069;-64
2022/03/21 08:59:48;;;;;;;22.48;7.85;;;;;;;;;;5078553;28;20488;-63
2022/03/21 09:02:17;;;;;;;22.17;7.53;;;;;;;;;;5080837;28;20029;-63
2022/03/21 09:04:44;;;;;;;23.23;7.18;;;;;;;;;;5074123;28;20072;-63
2022/03/21 09:07:10;;;;;;;21.73;7.45;;;;;;;;;;5081564;28;20029;-62
2022/03/21 09:09:36;;;;;;;21.98;6.93;;;;;;;;;;5067732;28;20059;-63
2022/03/21 09:12:02;;;;;;;19.80;6.75;;;;;;;;;;5072616;28;20751;-62
2022/03/21 09:14:28;;;;;;;20.63;6.72;;;;;;;;;;5069453;28;20040;-62
2022/03/21 09:16:56;;;;;;;22.00;7.00;;;;;;;;;;5079790;28;20063;-63
2022/03/21 09:19:25;;;;;;;20.30;6.30;;;;;;;;;;5072715;28;20028;-62
2022/03/21 09:21:52;;;;;;;22.05;7.07;;;;;;;;;;5087751;28;20055;-63
2022/03/21 09:24:19;;;;;;;21.58;6.70;;;;;;;;;;5075246;28;20035;-62
2022/03/21 09:26:45;;;;;;;20.30;6.97;;;;;;;;;;5068532;28;20420;-62
2022/03/21 09:29:11;;;;;;;19.52;6.55;;;;;;;;;;5076960;28;20401;-62
2022/03/21 09:31:39;;;;;;;20.52;6.68;;;;;;;;;;5074755;28;20040;-61
2022/03/21 09:34:05;;;;;;;20.10;6.82;;;;;;;;;;5073947;28;20024;-62
2022/03/21 09:36:31;;;;;;;22.35;6.40;;;;;;;;;;5080507;28;20021;-61
2022/03/21 09:38:57;;;;;;;20.77;6.85;;;;;;;;;;5078142;28;20035;-61
2022/03/21 09:41:27;;;;;;;18.77;6.40;;;;;;;;;;5072301;28;20029;-62
2022/03/21 09:43:55;;;;;;;19.38;6.40;;;;;;;;;;5089500;28;20095;-62
2022/03/21 09:46:21;;;;;;;21.23;6.97;;;;;;;;;;5076414;28;20492;-63
2022/03/21 09:48:48;;;;;;;21.33;6.43;;;;;;;;;;5086158;28;20063;-62
2022/03/21 09:51:16;;;;;;;18.73;6.50;;;;;;;;;;5083672;28;20096;-63
2022/03/21 09:53:43;;;;;;;19.05;6.07;;;;;;;;;;5078459;28;20028;-66
2022/03/21 09:56:09;;;;;;;19.25;7.07;;;;;;;;;;5089105;28;20039;-63
2022/03/21 09:58:35;;;;;;;18.42;6.35;;;;;;;;;;5078373;28;20024;-62
2022/03/21 10:01:01;;;;;;;18.23;6.40;;;;;;;;;;5083888;28;20036;-63
2022/03/21 10:03:28;;;;;;;19.80;6.30;;;;;;;;;;5085537;28;20028;-63
2022/03/21 10:05:53;;;;;;;22.00;6.72;;;;;;;;;;5076539;28;20074;-64
2022/03/21 10:08:20;;;;;;;21.00;6.65;;;;;;;;;;5089382;28;20403;-64
2022/03/21 10:10:52;;;;;;;18.63;6.40;;;;;;;;;;5079414;28;20028;-63
2022/03/21 10:13:19;;;;;;;19.15;6.78;;;;;;;;;;5081687;28;20111;-64
2022/03/21 10:15:45;;;;;;;20.20;6.30;;;;;;;;;;5087802;28;20024;-64
2022/03/21 10:18:12;;;;;;;18.20;6.60;;;;;;;;;;5075978;28;20028;-64
2022/03/21 10:20:39;;;;;;;20.35;6.78;;;;;;;;;;5087110;28;20020;-64
2022/03/21 10:23:22;;;;;;;18.92;6.32;;;;;;;;;;5081889;28;20024;-65
2022/03/21 10:25:49;;;;;;;19.02;6.40;;;;;;;;;;5076975;28;20060;-64
2022/03/21 10:28:34;;;;;;;19.75;6.50;;;;;;;;;;5089069;28;20040;-65
2022/03/21 10:31:02;;;;;;;20.30;6.22;;;;;;;;;;5081784;28;20071;-65
2022/03/21 10:33:28;;;;;;;19.88;6.63;;;;;;;;;;5079754;28;20016;-62
2022/03/21 10:35:54;;;;;;;17.90;6.30;;;;;;;;;;5084387;28;20028;-62
2022/03/21 10:38:41;;;;;;;19.65;6.45;;;;;;;;;;5089133;28;20020;-65
2022/03/21 10:41:08;;;;;;;19.02;6.28;;;;;;;;;;5081812;28;20031;-63
2022/03/21 10:43:34;;;;;;;20.15;6.60;;;;;;;;;;5078780;28;20079;-63
2022/03/21 10:46:02;;;;;;;19.27;6.63;;;;;;;;;;5089123;28;20016;-63
2022/03/21 10:48:29;;;;;;;19.27;6.55;;;;;;;;;;5076496;28;20012;-64
2022/03/21 10:50:56;;;;;;;19.35;6.53;;;;;;;;;;5084078;28;20040;-62
2022/03/21 10:53:25;;;;;;;17.88;6.07;;;;;;;;;;5082406;28;20050;-63
2022/03/21 10:56:11;;;;;;;19.00;6.78;;;;;;;;;;5076188;28;20020;-64
2022/03/21 10:58:50;;;;;;;19.35;6.55;;;;;;;;;;5076036;28;20028;-63
2022/03/21 11:01:17;;;;;;;18.48;6.13;;;;;;;;;;5079866;28;20408;-63
2022/03/21 11:03:44;;;;;;;19.60;6.28;;;;;;;;;;5086818;28;20035;-62
2022/03/21 11:06:14;;;;;;;17.75;5.88;;;;;;;;;;5075669;28;20099;-63
2022/03/21 11:08:40;;;;;;;17.98;6.20;;;;;;;;;;5085542;28;20017;-63
2022/03/21 11:11:08;;;;;;;18.63;6.68;;;;;;;;;;5081634;28;20381;-63
2022/03/21 11:13:36;;;;;;;18.02;6.35;;;;;;;;;;5080351;28;20024;-63
2022/03/21 11:16:03;;;;;;;18.05;6.55;;;;;;;;;;5092752;28;20055;-64
2022/03/21 11:18:29;;;;;;;20.08;6.60;;;;;;;;;;5080445;28;20497;-64
2022/03/21 11:20:59;;;;;;;20.35;6.30;;;;;;;;;;5088000;28;20060;-63
2022/03/21 11:23:26;;;;;;;17.80;6.15;;;;;;;;;;5087588;28;20094;-65
2022/03/21 11:25:55;;;;;;;19.05;6.00;;;;;;;;;;5079904;28;20484;-62
2022/03/21 11:28:37;;;;;;;17.20;6.15;;;;;;;;;;5092761;28;20031;-62
2022/03/21 11:31:20;;;;;;;19.50;6.22;;;;;;;;;;5077216;28;20056;-62
2022/03/21 11:33:46;;;;;;;18.88;6.28;;;;;;;;;;5092890;28;20064;-62
2022/03/21 11:36:12;;;;;;;19.75;6.82;;;;;;;;;;5078165;28;20121;-62
2022/03/21 11:38:45;;;;;;;20.88;7.93;;;;;;;;;;5079588;28;20060;-64
2022/03/21 11:41:13;;;;;;;21.42;8.18;;;;;;;;;;5084422;28;20104;-62
2022/03/21 11:43:40;;;;;;;23.08;9.55;;;;;;;;;;5086477;28;20052;-62
2022/03/21 11:46:25;;;;;;;22.63;9.80;;;;;;;;;;5077281;28;20083;-62
2022/03/21 11:48:51;;;;;;;24.30;9.98;;;;;;;;;;5072977;28;20082;-62
2022/03/21 11:51:17;;;;;;;23.77;10.43;;;;;;;;;;5078431;28;20493;-63
2022/03/21 11:53:54;;;;;;;22.13;8.98;;;;;;;;;;5076527;28;20025;-67
2022/03/21 11:56:38;;;;;;;21.67;9.15;;;;;;;;;;5095168;28;20016;-61
2022/03/21 11:59:05;;;;;;;22.65;9.57;;;;;;;;;;5096062;28;20504;-63
2022/03/21 12:01:31;;;;;;;23.23;8.90;;;;;;;;;;5095974;28;20051;-61
2022/03/21 12:04:17;;;;;;;23.60;9.25;;;;;;;;;;5077346;28;20066;-61
2022/03/21 12:06:43;;;;;;;21.88;9.05;;;;;;;;;;5073668;28;20036;-61
2022/03/21 12:09:11;;;;;;;21.70;9.23;;;;;;;;;;5075810;28;20036;-61
2022/03/21 12:11:37;;;;;;;23.95;8.70;;;;;;;;;;5073642;28;20036;-63
2022/03/21 12:17:08;;;;;;;20.88;7.63;;;;;;;;;;5074645;28;20033;-62
2022/03/21 12:19:57;;;;;;;23.17;8.20;;;;;;;;;;5050896;28;20055;-60
2022/03/21 12:22:36;;;;;;;27.33;8.15;;;;;;;;;;5055741;28;20071;-64
2022/03/21 12:25:02;;;;;;;29.48;8.13;;;;;;;;;;5068968;28;20055;-62
2022/03/21 12:27:39;;;;;;;26.42;7.95;;;;;;;;;;5082918;28;20453;-63
2022/03/21 12:30:32;;;;;;;28.55;10.10;;;;;;;;;;5062292;28;20053;-62
2022/03/21 12:32:59;;;;;;;25.42;9.07;;;;;;;;;;5072442;28;20055;-62
2022/03/21 12:35:48;;;;;;;27.80;9.20;;;;;;;;;;5093740;28;20464;-62
2022/03/21 12:38:16;;;;;;;28.67;8.93;;;;;;;;;;5091026;28;20032;-63
2022/03/21 12:40:51;;;;;;;31.23;9.30;;;;;;;;;;5091136;28;20365;-61
2022/03/21 12:43:25;;;;;;;21.58;8.40;;;;;;;;;;5076313;28;20473;-62
2022/03/21 12:45:58;;;;;;;20.88;8.38;;;;;;;;;;5074660;28;20105;-64
2022/03/21 12:48:28;;;;;;;29.98;8.30;;;;;;;;;;5074973;28;20021;-63
2022/03/21 12:50:54;;;;;;;22.63;7.93;;;;;;;;;;5071964;28;20135;-61
2022/03/21 12:53:22;;;;;;;19.27;7.22;;;;;;;;;;5062076;28;20065;-62
2022/03/21 12:56:02;;;;;;;22.08;7.65;;;;;;;;;;5069321;28;20024;-62
2022/03/21 12:58:28;;;;;;;24.20;7.18;;;;;;;;;;5057262;28;20029;-64
2022/03/21 13:00:55;;;;;;;25.50;8.20;;;;;;;;;;5063057;28;20127;-62
2022/03/21 13:03:23;;;;;;;34.70;9.85;;;;;;;;;;5060937;28;20078;-63
2022/03/21 13:11:31;;;;;;;21.52;7.68;;;;;;;;;;5066713;28;20071;-60
2022/03/21 13:13:58;;;;;;;24.90;7.25;;;;;;;;;;5079830;28;20059;-60
2022/03/21 13:16:25;;;;;;;22.27;7.65;;;;;;;;;;5075142;28;20016;-60
2022/03/21 13:18:53;;;;;;;22.20;7.85;;;;;;;;;;5072914;28;20029;-59
2022/03/21 13:21:19;;;;;;;24.45;7.15;;;;;;;;;;5089366;28;20457;-59
2022/03/21 13:23:46;;;;;;;23.42;7.07;;;;;;;;;;5073334;28;20385;-60
2022/03/21 13:26:14;;;;;;;23.30;6.93;;;;;;;;;;5073558;28;20029;-60
2022/03/21 13:28:40;;;;;;;19.23;6.38;;;;;;;;;;5070187;28;20032;-60
2022/03/21 13:31:11;;;;;;;18.98;7.07;;;;;;;;;;5079093;28;20064;-61
2022/03/21 13:33:37;;;;;;;;;;;;;;;;;;5070416;28;20021;-59
2022/03/21 13:36:05;;;;;;;18.70;6.47;;;;;;;;;;5072057;28;19912;-59
2022/03/21 13:38:32;;;;;;;19.85;6.35;;;;;;;;;;5083745;28;20467;-58
2022/03/21 13:40:58;;;;;;;20.88;6.20;;;;;;;;;;5073226;28;20037;-58
2022/03/21 13:43:28;;;;;;;22.25;6.55;;;;;;;;;;5082827;28;20020;-59
2022/03/21 13:45:54;;;;;;;20.80;6.57;;;;;;;;;;5077785;28;20038;-58
2022/03/21 13:48:38;;;;;;;20.08;6.40;;;;;;;;;;5077021;28;20492;-59
2022/03/21 13:51:23;;;;;;;18.35;5.50;;;;;;;;;;5083629;28;20052;-65
2022/03/21 13:53:50;;;;;;;18.65;5.93;;;;;;;;;;5074171;28;20025;-64
2022/03/21 13:56:16;;;;;;;18.58;5.95;;;;;;;;;;5068570;28;20032;-63
2022/03/21 13:58:42;;;;;;;19.88;6.18;;;;;;;;;;5070072;28;20098;-65
2022/03/21 14:01:18;;;;;;;19.10;6.22;;;;;;;;;;5071743;28;20556;-65
2022/03/21 14:03:47;;;;;;;17.83;5.63;;;;;;;;;;5069827;28;20029;-65
2022/03/21 14:06:13;;;;;;;21.58;5.45;;;;;;;;;;5070047;28;20028;-66
2022/03/21 14:08:39;;;;;;;19.55;5.80;;;;;;;;;;5073127;28;20359;-66
2022/03/21 14:11:18;;;;;;;18.60;5.93;;;;;;;;;;5073555;28;20044;-61
2022/03/21 14:13:47;;;;;;;19.90;5.50;;;;;;;;;;5083094;28;20024;-60
2022/03/21 14:16:14;;;;;;;18.10;5.47;;;;;;;;;;5080671;28;20056;-59
2022/03/21 14:18:51;;;;;;;17.52;5.88;;;;;;;;;;5092465;28;20024;-59
2022/03/21 14:21:17;;;;;;;17.98;5.50;;;;;;;;;;5074500;28;20109;-58
2022/03/21 14:23:43;;;;;;;17.40;5.63;;;;;;;;;;5073173;28;20103;-62
2022/03/21 14:28:54;;;;;;;19.38;5.18;;;;;;;;;;5070696;28;20082;-60
2022/03/21 14:31:20;;;;;;;18.40;5.30;;;;;;;;;;5072930;28;20420;-58
2022/03/21 14:33:46;;;;;;;17.63;5.70;;;;;;;;;;5072505;28;20032;-59
2022/03/21 14:36:13;;;;;;;15.48;4.88;;;;;;;;;;5073125;28;20458;-58
2022/03/21 14:38:40;;;;;;;16.20;4.97;;;;;;;;;;5073351;28;20423;-60
2022/03/21 14:41:08;;;;;;;16.00;5.25;;;;;;;;;;5067771;28;20108;-61
2022/03/21 14:43:34;;;;;;;18.13;5.40;;;;;;;;;;5083931;28;20024;-59
2022/03/21 14:46:01;;;;;;;17.30;5.22;;;;;;;;;;5082937;28;20017;-58
2022/03/21 14:48:27;;;;;;;16.13;5.50;;;;;;;;;;5085917;28;20095;-65
2022/03/21 14:50:54;;;;;;;15.75;5.20;;;;;;;;;;5076231;28;20037;-58
2022/03/21 14:53:20;;;;;;;16.58;5.28;;;;;;;;;;5088799;28;20053;-59
2022/03/21 14:55:46;;;;;;;17.33;5.38;;;;;;;;;;5079951;28;20028;-63
2022/03/21 14:58:13;;;;;;;15.68;4.85;;;;;;;;;;5081292;28;20555;-64
2022/03/21 15:00:40;;;;;;;15.15;4.80;;;;;;;;;;5087683;28;20024;-65